sensor_id;sensor_type;location;lat;lon;timestamp;temperature;humidity
20977;DHT22;10647;51.016;3.720;2023-07-20T00:00:18;18.80;99.90
20977;DHT22;10647;51.016;3.720;2023-07-20T00:02:51;18.80;99.90
20977;DHT22;10647;51.016;3.720;2023-07-20T00:05:19;18.50;99.90
20977;DHT22;10647;51.016;3.720;2023-07-20T00:07:48;18.60;99.90
20977;DHT22;10647;51.016;3.720;2023-07-20T00:10:17;18.60;99.90
20977;DHT22;10647;51.016;3.720;2023-07-20T00:12:44;18.70;99.90
20977;DHT22;10647;51.016;3.720;2023-07-20T00:15:14;18.30;99.90
20977;DHT22;10647;51.016;3.720;2023-07-20T00:17:42;18.30;99.90
20977;DHT22;10647;51.016;3.720;2023-07-20T00:20:11;18.40;99.90
20977;DHT22;10647;51.016;3.720;2023-07-20T00:22:39;18.30;99.90
20977;DHT22;10647;51.016;3.720;2023-07-20T00:25:08;18.30;99.90
20977;DHT22;10647;51.016;3.720;2023-07-20T00:27:38;18.30;99.90
20977;DHT22;10647;51.016;3.720;2023-07-20T00:30:06;18.20;99.90
20977;DHT22;10647;51.016;3.720;2023-07-20T00:32:34;18.00;99.90
20977;DHT22;10647;51.016;3.720;2023-07-20T00:35:01;17.90;99.90
20977;DHT22;10647;51.016;3.720;2023-07-20T00:37:29;17.50;99.90
20977;DHT22;10647;51.016;3.720;2023-07-20T00:39:56;17.70;99.90
20977;DHT22;10647;51.016;3.720;2023-07-20T00:42:24;17.80;99.90
20977;DHT22;10647;51.016;3.720;2023-07-20T00:44:52;17.90;99.90
20977;DHT22;10647;51.016;3.720;2023-07-20T00:47:20;17.80;99.90
20977;DHT22;10647;51.016;3.720;2023-07-20T00:49:48;18.00;99.90
20977;DHT22;10647;51.016;3.720;2023-07-20T00:52:20;17.80;99.90
20977;DHT22;10647;51.016;3.720;2023-07-20T00:54:48;17.90;99.90
20977;DHT22;10647;51.016;3.720;2023-07-20T00:57:17;18.10;99.90
20977;DHT22;10647;51.016;3.720;2023-07-20T00:59:49;18.20;99.90
20977;DHT22;10647;51.016;3.720;2023-07-20T01:02:17;18.10;99.90
20977;DHT22;10647;51.016;3.720;2023-07-20T01:04:47;18.10;99.90
20977;DHT22;10647;51.016;3.720;2023-07-20T01:07:38;18.00;99.90
20977;DHT22;10647;51.016;3.720;2023-07-20T01:10:12;18.10;99.90
20977;DHT22;10647;51.016;3.720;2023-07-20T01:12:43;18.10;99.90
20977;DHT22;10647;51.016;3.720;2023-07-20T01:15:12;18.00;99.90
20977;DHT22;10647;51.016;3.720;2023-07-20T01:17:40;18.00;99.90
20977;DHT22;10647;51.016;3.720;2023-07-20T01:20:09;18.00;99.90
20977;DHT22;10647;51.016;3.720;2023-07-20T01:22:54;17.90;99.90
20977;DHT22;10647;51.016;3.720;2023-07-20T01:31:17;17.70;99.90
20977;DHT22;10647;51.016;3.720;2023-07-20T01:33:46;17.60;99.90
20977;DHT22;10647;51.016;3.720;2023-07-20T01:36:16;17.60;99.90
20977;DHT22;10647;51.016;3.720;2023-07-20T01:38:44;17.40;99.90
20977;DHT22;10647;51.016;3.720;2023-07-20T01:41:12;17.30;99.90
20977;DHT22;10647;51.016;3.720;2023-07-20T01:43:40;17.40;99.90
20977;DHT22;10647;51.016;3.720;2023-07-20T01:46:08;17.30;99.90
20977;DHT22;10647;51.016;3.720;2023-07-20T01:48:35;17.30;99.90
20977;DHT22;10647;51.016;3.720;2023-07-20T01:51:03;17.40;99.90
20977;DHT22;10647;51.016;3.720;2023-07-20T01:53:30;17.40;99.90
20977;DHT22;10647;51.016;3.720;2023-07-20T01:55:59;17.40;99.90
20977;DHT22;10647;51.016;3.720;2023-07-20T01:58:32;17.30;99.90
20977;DHT22;10647;51.016;3.720;2023-07-20T02:01:00;17.30;99.90
20977;DHT22;10647;51.016;3.720;2023-07-20T02:03:28;17.30;99.90
20977;DHT22;10647;51.016;3.720;2023-07-20T02:05:55;17.20;99.90
20977;DHT22;10647;51.016;3.720;2023-07-20T02:08:23;17.20;99.90
20977;DHT22;10647;51.016;3.720;2023-07-20T02:10:51;17.10;99.90
20977;DHT22;10647;51.016;3.720;2023-07-20T02:13:19;17.20;99.90
20977;DHT22;10647;51.016;3.720;2023-07-20T02:15:46;17.00;99.90
20977;DHT22;10647;51.016;3.720;2023-07-20T02:18:15;17.00;99.90
20977;DHT22;10647;51.016;3.720;2023-07-20T02:20:43;17.10;99.90
20977;DHT22;10647;51.016;3.720;2023-07-20T02:23:11;17.40;99.90
20977;DHT22;10647;51.016;3.720;2023-07-20T02:25:38;17.40;99.90
20977;DHT22;10647;51.016;3.720;2023-07-20T02:28:07;17.60;99.90
20977;DHT22;10647;51.016;3.720;2023-07-20T02:30:40;17.40;99.90
20977;DHT22;10647;51.016;3.720;2023-07-20T02:33:07;17.40;99.90
20977;DHT22;10647;51.016;3.720;2023-07-20T02:35:35;17.70;99.90
20977;DHT22;10647;51.016;3.720;2023-07-20T02:38:02;17.80;99.90
20977;DHT22;10647;51.016;3.720;2023-07-20T02:40:30;17.50;99.90
20977;DHT22;10647;51.016;3.720;2023-07-20T02:42:58;17.30;99.90
20977;DHT22;10647;51.016;3.720;2023-07-20T02:45:26;17.00;99.90
20977;DHT22;10647;51.016;3.720;2023-07-20T02:47:54;17.40;99.90
20977;DHT22;10647;51.016;3.720;2023-07-20T02:50:22;17.60;99.90
20977;DHT22;10647;51.016;3.720;2023-07-20T02:52:50;17.80;99.90
20977;DHT22;10647;51.016;3.720;2023-07-20T02:55:18;17.80;99.90
20977;DHT22;10647;51.016;3.720;2023-07-20T02:57:45;17.70;99.90
20977;DHT22;10647;51.016;3.720;2023-07-20T03:00:13;17.80;99.90
20977;DHT22;10647;51.016;3.720;2023-07-20T03:02:42;17.90;99.90
20977;DHT22;10647;51.016;3.720;2023-07-20T03:05:09;17.90;99.90
20977;DHT22;10647;51.016;3.720;2023-07-20T03:07:37;17.80;99.90
20977;DHT22;10647;51.016;3.720;2023-07-20T03:10:05;17.90;99.90
20977;DHT22;10647;51.016;3.720;2023-07-20T03:12:35;17.70;99.90
20977;DHT22;10647;51.016;3.720;2023-07-20T03:15:03;17.20;99.90
20977;DHT22;10647;51.016;3.720;2023-07-20T03:17:30;16.90;99.90
20977;DHT22;10647;51.016;3.720;2023-07-20T03:19:58;17.20;99.90
20977;DHT22;10647;51.016;3.720;2023-07-20T03:22:26;17.50;99.90
20977;DHT22;10647;51.016;3.720;2023-07-20T03:24:53;17.80;99.90
20977;DHT22;10647;51.016;3.720;2023-07-20T03:27:21;17.60;99.90
20977;DHT22;10647;51.016;3.720;2023-07-20T03:29:49;17.70;99.90
20977;DHT22;10647;51.016;3.720;2023-07-20T03:32:17;17.80;99.90
20977;DHT22;10647;51.016;3.720;2023-07-20T03:34:44;18.00;99.90
20977;DHT22;10647;51.016;3.720;2023-07-20T03:37:13;18.00;99.90
20977;DHT22;10647;51.016;3.720;2023-07-20T03:39:41;17.90;99.90
20977;DHT22;10647;51.016;3.720;2023-07-20T03:42:08;17.70;99.90
20977;DHT22;10647;51.016;3.720;2023-07-20T03:44:36;17.60;99.90
20977;DHT22;10647;51.016;3.720;2023-07-20T03:47:03;17.80;99.90
20977;DHT22;10647;51.016;3.720;2023-07-20T03:49:31;17.70;99.90
20977;DHT22;10647;51.016;3.720;2023-07-20T03:51:59;17.60;99.90
20977;DHT22;10647;51.016;3.720;2023-07-20T03:54:26;17.70;99.90
20977;DHT22;10647;51.016;3.720;2023-07-20T03:56:54;17.80;99.90
20977;DHT22;10647;51.016;3.720;2023-07-20T03:59:21;17.80;99.90
20977;DHT22;10647;51.016;3.720;2023-07-20T04:01:49;17.90;99.90
20977;DHT22;10647;51.016;3.720;2023-07-20T04:04:17;18.00;99.90
20977;DHT22;10647;51.016;3.720;2023-07-20T04:06:45;18.00;99.90
20977;DHT22;10647;51.016;3.720;2023-07-20T04:09:13;18.00;99.90
20977;DHT22;10647;51.016;3.720;2023-07-20T04:11:40;18.00;99.90
20977;DHT22;10647;51.016;3.720;2023-07-20T04:14:08;17.90;99.90
20977;DHT22;10647;51.016;3.720;2023-07-20T04:16:35;17.90;99.90
20977;DHT22;10647;51.016;3.720;2023-07-20T04:19:03;18.00;99.90
20977;DHT22;10647;51.016;3.720;2023-07-20T04:21:31;18.00;99.90
20977;DHT22;10647;51.016;3.720;2023-07-20T04:23:58;18.00;99.90
20977;DHT22;10647;51.016;3.720;2023-07-20T04:26:27;18.00;99.90
20977;DHT22;10647;51.016;3.720;2023-07-20T04:28:54;18.00;99.90
20977;DHT22;10647;51.016;3.720;2023-07-20T04:31:22;18.00;99.90
20977;DHT22;10647;51.016;3.720;2023-07-20T04:33:49;18.00;99.90
20977;DHT22;10647;51.016;3.720;2023-07-20T04:36:17;18.10;99.90
20977;DHT22;10647;51.016;3.720;2023-07-20T04:38:55;18.10;99.90
20977;DHT22;10647;51.016;3.720;2023-07-20T04:41:32;18.20;99.90
20977;DHT22;10647;51.016;3.720;2023-07-20T04:44:01;18.20;99.90
20977;DHT22;10647;51.016;3.720;2023-07-20T04:46:49;18.20;99.90
20977;DHT22;10647;51.016;3.720;2023-07-20T04:49:17;18.30;99.90
20977;DHT22;10647;51.016;3.720;2023-07-20T04:51:45;18.00;99.90
20977;DHT22;10647;51.016;3.720;2023-07-20T04:54:22;18.20;99.90
20977;DHT22;10647;51.016;3.720;2023-07-20T04:56:49;18.30;99.90
20977;DHT22;10647;51.016;3.720;2023-07-20T04:59:17;18.30;99.90
20977;DHT22;10647;51.016;3.720;2023-07-20T05:01:44;18.40;99.90
20977;DHT22;10647;51.016;3.720;2023-07-20T05:04:12;18.50;99.90
20977;DHT22;10647;51.016;3.720;2023-07-20T05:06:39;18.60;99.90
20977;DHT22;10647;51.016;3.720;2023-07-20T05:09:07;18.60;99.90
20977;DHT22;10647;51.016;3.720;2023-07-20T05:11:39;18.70;99.90
20977;DHT22;10647;51.016;3.720;2023-07-20T05:14:06;18.80;99.90
20977;DHT22;10647;51.016;3.720;2023-07-20T05:16:37;19.00;99.90
20977;DHT22;10647;51.016;3.720;2023-07-20T05:19:04;19.10;99.90
20977;DHT22;10647;51.016;3.720;2023-07-20T05:21:32;19.10;99.90
20977;DHT22;10647;51.016;3.720;2023-07-20T05:24:00;19.20;99.90
20977;DHT22;10647;51.016;3.720;2023-07-20T05:26:28;19.20;99.90
20977;DHT22;10647;51.016;3.720;2023-07-20T05:28:55;19.20;99.90
20977;DHT22;10647;51.016;3.720;2023-07-20T05:31:23;19.30;99.90
20977;DHT22;10647;51.016;3.720;2023-07-20T05:33:53;19.50;99.90
20977;DHT22;10647;51.016;3.720;2023-07-20T05:36:20;19.50;99.90
20977;DHT22;10647;51.016;3.720;2023-07-20T05:38:49;19.60;99.90
20977;DHT22;10647;51.016;3.720;2023-07-20T05:41:16;19.70;99.90
20977;DHT22;10647;51.016;3.720;2023-07-20T05:43:49;19.80;99.90
20977;DHT22;10647;51.016;3.720;2023-07-20T05:46:17;19.90;99.90
20977;DHT22;10647;51.016;3.720;2023-07-20T05:48:45;20.00;99.90
20977;DHT22;10647;51.016;3.720;2023-07-20T05:51:13;20.10;99.90
20977;DHT22;10647;51.016;3.720;2023-07-20T05:53:40;20.10;99.90
20977;DHT22;10647;51.016;3.720;2023-07-20T05:56:08;20.20;99.90
20977;DHT22;10647;51.016;3.720;2023-07-20T05:58:38;20.30;99.90
20977;DHT22;10647;51.016;3.720;2023-07-20T06:01:06;20.20;99.90
20977;DHT22;10647;51.016;3.720;2023-07-20T06:03:33;20.20;99.90
20977;DHT22;10647;51.016;3.720;2023-07-20T06:06:01;20.30;99.90
20977;DHT22;10647;51.016;3.720;2023-07-20T06:08:31;20.40;99.90
20977;DHT22;10647;51.016;3.720;2023-07-20T06:10:58;20.50;99.90
20977;DHT22;10647;51.016;3.720;2023-07-20T06:13:27;20.70;99.90
20977;DHT22;10647;51.016;3.720;2023-07-20T06:15:54;20.90;99.90
20977;DHT22;10647;51.016;3.720;2023-07-20T06:18:25;20.90;99.90
20977;DHT22;10647;51.016;3.720;2023-07-20T06:20:52;20.70;99.90
20977;DHT22;10647;51.016;3.720;2023-07-20T06:23:21;20.60;99.90
20977;DHT22;10647;51.016;3.720;2023-07-20T06:25:48;20.60;99.90
20977;DHT22;10647;51.016;3.720;2023-07-20T06:28:16;20.60;99.90
20977;DHT22;10647;51.016;3.720;2023-07-20T06:30:52;21.00;99.90
20977;DHT22;10647;51.016;3.720;2023-07-20T06:33:19;21.20;99.90
20977;DHT22;10647;51.016;3.720;2023-07-20T06:35:47;21.50;99.90
20977;DHT22;10647;51.016;3.720;2023-07-20T06:38:15;21.70;99.90
20977;DHT22;10647;51.016;3.720;2023-07-20T06:40:42;21.70;99.90
20977;DHT22;10647;51.016;3.720;2023-07-20T06:43:09;21.60;99.90
20977;DHT22;10647;51.016;3.720;2023-07-20T06:45:37;21.50;99.90
20977;DHT22;10647;51.016;3.720;2023-07-20T06:48:05;21.50;99.90
20977;DHT22;10647;51.016;3.720;2023-07-20T06:50:32;21.60;99.90
20977;DHT22;10647;51.016;3.720;2023-07-20T06:53:00;21.80;99.90
20977;DHT22;10647;51.016;3.720;2023-07-20T06:55:30;22.10;99.90
20977;DHT22;10647;51.016;3.720;2023-07-20T06:57:57;22.50;99.90
20977;DHT22;10647;51.016;3.720;2023-07-20T07:00:25;22.70;99.90
20977;DHT22;10647;51.016;3.720;2023-07-20T07:02:52;23.10;98.90
20977;DHT22;10647;51.016;3.720;2023-07-20T07:05:20;23.50;97.90
20977;DHT22;10647;51.016;3.720;2023-07-20T07:07:48;24.00;96.60
20977;DHT22;10647;51.016;3.720;2023-07-20T07:10:37;24.10;95.30
20977;DHT22;10647;51.016;3.720;2023-07-20T07:13:04;23.70;96.00
20977;DHT22;10647;51.016;3.720;2023-07-20T07:15:31;23.40;95.60
20977;DHT22;10647;51.016;3.720;2023-07-20T07:17:59;23.10;96.50
20977;DHT22;10647;51.016;3.720;2023-07-20T07:20:26;23.30;95.90
20977;DHT22;10647;51.016;3.720;2023-07-20T07:22:55;23.30;95.80
20977;DHT22;10647;51.016;3.720;2023-07-20T07:25:23;23.40;95.40
20977;DHT22;10647;51.016;3.720;2023-07-20T07:30:40;23.70;94.30
20977;DHT22;10647;51.016;3.720;2023-07-20T07:33:08;23.50;95.90
20977;DHT22;10647;51.016;3.720;2023-07-20T07:35:37;23.40;94.80
20977;DHT22;10647;51.016;3.720;2023-07-20T07:38:04;23.50;94.60
20977;DHT22;10647;51.016;3.720;2023-07-20T07:40:33;23.20;95.10
20977;DHT22;10647;51.016;3.720;2023-07-20T07:43:00;23.40;94.70
20977;DHT22;10647;51.016;3.720;2023-07-20T07:45:28;23.40;95.30
20977;DHT22;10647;51.016;3.720;2023-07-20T07:47:56;23.60;94.70
20977;DHT22;10647;51.016;3.720;2023-07-20T07:50:23;23.90;93.70
20977;DHT22;10647;51.016;3.720;2023-07-20T07:52:51;24.00;94.20
20977;DHT22;10647;51.016;3.720;2023-07-20T07:55:18;24.10;94.20
20977;DHT22;10647;51.016;3.720;2023-07-20T07:57:46;24.20;93.90
20977;DHT22;10647;51.016;3.720;2023-07-20T08:00:14;24.00;93.70
20977;DHT22;10647;51.016;3.720;2023-07-20T08:02:43;23.80;94.40
20977;DHT22;10647;51.016;3.720;2023-07-20T08:05:12;24.40;93.60
20977;DHT22;10647;51.016;3.720;2023-07-20T08:07:41;24.60;92.80
20977;DHT22;10647;51.016;3.720;2023-07-20T08:10:09;25.00;92.30
20977;DHT22;10647;51.016;3.720;2023-07-20T08:12:37;25.40;91.40
20977;DHT22;10647;51.016;3.720;2023-07-20T08:15:05;25.60;90.50
20977;DHT22;10647;51.016;3.720;2023-07-20T08:17:32;25.90;88.00
20977;DHT22;10647;51.016;3.720;2023-07-20T08:20:00;25.40;89.20
20977;DHT22;10647;51.016;3.720;2023-07-20T08:22:27;25.50;90.00
20977;DHT22;10647;51.016;3.720;2023-07-20T08:24:55;25.70;88.40
20977;DHT22;10647;51.016;3.720;2023-07-20T08:27:22;26.10;88.70
20977;DHT22;10647;51.016;3.720;2023-07-20T08:29:50;26.10;87.80
20977;DHT22;10647;51.016;3.720;2023-07-20T08:32:17;25.60;87.80
20977;DHT22;10647;51.016;3.720;2023-07-20T08:34:45;26.00;87.20
20977;DHT22;10647;51.016;3.720;2023-07-20T08:37:12;26.20;86.00
20977;DHT22;10647;51.016;3.720;2023-07-20T08:39:40;25.90;85.70
20977;DHT22;10647;51.016;3.720;2023-07-20T08:42:08;25.60;86.70
20977;DHT22;10647;51.016;3.720;2023-07-20T08:44:38;26.10;85.30
20977;DHT22;10647;51.016;3.720;2023-07-20T08:47:06;26.20;85.00
20977;DHT22;10647;51.016;3.720;2023-07-20T08:49:37;26.70;82.50
20977;DHT22;10647;51.016;3.720;2023-07-20T08:52:06;26.50;82.40
20977;DHT22;10647;51.016;3.720;2023-07-20T08:54:34;26.80;81.90
20977;DHT22;10647;51.016;3.720;2023-07-20T08:57:04;26.80;80.50
20977;DHT22;10647;51.016;3.720;2023-07-20T08:59:33;26.70;79.10
20977;DHT22;10647;51.016;3.720;2023-07-20T09:02:02;26.80;79.00
20977;DHT22;10647;51.016;3.720;2023-07-20T09:04:31;26.90;78.70
20977;DHT22;10647;51.016;3.720;2023-07-20T09:06:58;27.20;78.60
20977;DHT22;10647;51.016;3.720;2023-07-20T09:09:26;27.70;78.30
20977;DHT22;10647;51.016;3.720;2023-07-20T09:11:54;27.50;77.70
20977;DHT22;10647;51.016;3.720;2023-07-20T09:14:23;27.40;78.70
20977;DHT22;10647;51.016;3.720;2023-07-20T09:16:53;27.30;77.90
20977;DHT22;10647;51.016;3.720;2023-07-20T09:19:21;27.10;77.90
20977;DHT22;10647;51.016;3.720;2023-07-20T09:21:50;27.30;77.10
20977;DHT22;10647;51.016;3.720;2023-07-20T09:24:19;27.00;77.10
20977;DHT22;10647;51.016;3.720;2023-07-20T09:26:48;26.90;77.80
20977;DHT22;10647;51.016;3.720;2023-07-20T09:29:20;27.10;77.40
20977;DHT22;10647;51.016;3.720;2023-07-20T09:32:03;27.30;75.90
20977;DHT22;10647;51.016;3.720;2023-07-20T09:34:33;27.40;75.60
20977;DHT22;10647;51.016;3.720;2023-07-20T09:37:00;27.60;75.40
20977;DHT22;10647;51.016;3.720;2023-07-20T09:39:28;27.90;75.00
20977;DHT22;10647;51.016;3.720;2023-07-20T09:42:00;27.80;74.20
20977;DHT22;10647;51.016;3.720;2023-07-20T09:44:28;27.60;75.20
20977;DHT22;10647;51.016;3.720;2023-07-20T09:46:56;26.30;77.00
20977;DHT22;10647;51.016;3.720;2023-07-20T09:49:24;27.00;77.70
20977;DHT22;10647;51.016;3.720;2023-07-20T09:51:52;26.70;78.40
20977;DHT22;10647;51.016;3.720;2023-07-20T09:54:22;26.00;78.00
20977;DHT22;10647;51.016;3.720;2023-07-20T09:56:52;26.20;78.90
20977;DHT22;10647;51.016;3.720;2023-07-20T09:59:20;26.70;77.00
20977;DHT22;10647;51.016;3.720;2023-07-20T10:01:48;26.60;77.50
20977;DHT22;10647;51.016;3.720;2023-07-20T10:04:19;27.40;76.30
20977;DHT22;10647;51.016;3.720;2023-07-20T10:06:49;27.70;76.30
20977;DHT22;10647;51.016;3.720;2023-07-20T10:09:19;27.40;75.30
20977;DHT22;10647;51.016;3.720;2023-07-20T10:11:49;27.40;74.00
20977;DHT22;10647;51.016;3.720;2023-07-20T10:14:19;26.00;77.50
20977;DHT22;10647;51.016;3.720;2023-07-20T10:16:55;24.60;83.70
20977;DHT22;10647;51.016;3.720;2023-07-20T10:19:25;24.60;82.50
20977;DHT22;10647;51.016;3.720;2023-07-20T10:21:56;25.60;80.30
20977;DHT22;10647;51.016;3.720;2023-07-20T10:24:24;26.30;78.30
20977;DHT22;10647;51.016;3.720;2023-07-20T10:26:52;26.80;77.00
20977;DHT22;10647;51.016;3.720;2023-07-20T10:29:19;27.10;74.80
20977;DHT22;10647;51.016;3.720;2023-07-20T10:31:48;26.80;75.90
20977;DHT22;10647;51.016;3.720;2023-07-20T10:34:22;26.20;77.30
20977;DHT22;10647;51.016;3.720;2023-07-20T10:36:51;26.30;78.30
20977;DHT22;10647;51.016;3.720;2023-07-20T10:39:30;27.00;76.90
20977;DHT22;10647;51.016;3.720;2023-07-20T10:42:09;27.30;73.70
20977;DHT22;10647;51.016;3.720;2023-07-20T10:44:40;27.60;73.00
20977;DHT22;10647;51.016;3.720;2023-07-20T10:47:12;26.90;74.20
20977;DHT22;10647;51.016;3.720;2023-07-20T10:49:59;27.50;73.10
20977;DHT22;10647;51.016;3.720;2023-07-20T10:52:27;27.00;73.60
20977;DHT22;10647;51.016;3.720;2023-07-20T10:54:56;27.20;72.80
20977;DHT22;10647;51.016;3.720;2023-07-20T10:57:29;27.20;71.70
20977;DHT22;10647;51.016;3.720;2023-07-20T11:00:08;28.20;70.10
20977;DHT22;10647;51.016;3.720;2023-07-20T11:02:48;28.50;69.30
20977;DHT22;10647;51.016;3.720;2023-07-20T11:05:35;28.60;68.40
20977;DHT22;10647;51.016;3.720;2023-07-20T11:08:05;27.80;69.00
20977;DHT22;10647;51.016;3.720;2023-07-20T11:10:33;27.20;71.20
20977;DHT22;10647;51.016;3.720;2023-07-20T11:13:21;27.70;70.60
20977;DHT22;10647;51.016;3.720;2023-07-20T11:18:33;26.80;72.60
20977;DHT22;10647;51.016;3.720;2023-07-20T11:21:02;26.80;71.80
20977;DHT22;10647;51.016;3.720;2023-07-20T11:23:31;26.90;72.00
20977;DHT22;10647;51.016;3.720;2023-07-20T11:25:59;26.90;72.30
20977;DHT22;10647;51.016;3.720;2023-07-20T11:28:30;26.60;73.30
20977;DHT22;10647;51.016;3.720;2023-07-20T11:30:59;26.60;73.80
20977;DHT22;10647;51.016;3.720;2023-07-20T11:33:27;26.60;73.60
20977;DHT22;10647;51.016;3.720;2023-07-20T11:35:54;26.20;74.80
20977;DHT22;10647;51.016;3.720;2023-07-20T11:38:24;26.20;74.50
20977;DHT22;10647;51.016;3.720;2023-07-20T11:40:51;24.90;77.90
20977;DHT22;10647;51.016;3.720;2023-07-20T11:43:19;25.00;78.20
20977;DHT22;10647;51.016;3.720;2023-07-20T11:45:49;25.20;78.00
20977;DHT22;10647;51.016;3.720;2023-07-20T11:48:17;25.90;76.00
20977;DHT22;10647;51.016;3.720;2023-07-20T11:50:45;25.90;75.40
20977;DHT22;10647;51.016;3.720;2023-07-20T11:53:13;26.20;75.50
20977;DHT22;10647;51.016;3.720;2023-07-20T11:55:42;25.90;76.00
20977;DHT22;10647;51.016;3.720;2023-07-20T11:58:09;26.40;75.80
20977;DHT22;10647;51.016;3.720;2023-07-20T12:00:39;26.60;75.70
20977;DHT22;10647;51.016;3.720;2023-07-20T12:03:07;26.70;80.30
20977;DHT22;10647;51.016;3.720;2023-07-20T12:05:34;26.20;81.60
20977;DHT22;10647;51.016;3.720;2023-07-20T12:08:02;25.10;88.00
20977;DHT22;10647;51.016;3.720;2023-07-20T12:10:30;24.60;94.80
20977;DHT22;10647;51.016;3.720;2023-07-20T12:13:04;24.30;98.40
20977;DHT22;10647;51.016;3.720;2023-07-20T12:15:31;24.20;93.60
20977;DHT22;10647;51.016;3.720;2023-07-20T12:18:00;24.30;94.00
20977;DHT22;10647;51.016;3.720;2023-07-20T12:20:33;24.40;92.00
20977;DHT22;10647;51.016;3.720;2023-07-20T12:23:05;25.10;92.10
20977;DHT22;10647;51.016;3.720;2023-07-20T12:25:36;26.00;90.30
20977;DHT22;10647;51.016;3.720;2023-07-20T12:28:04;26.30;86.20
20977;DHT22;10647;51.016;3.720;2023-07-20T12:30:31;26.70;83.40
20977;DHT22;10647;51.016;3.720;2023-07-20T12:32:59;27.30;78.60
20977;DHT22;10647;51.016;3.720;2023-07-20T12:35:27;27.60;79.40
20977;DHT22;10647;51.016;3.720;2023-07-20T12:37:55;28.20;76.20
20977;DHT22;10647;51.016;3.720;2023-07-20T12:40:22;28.90;72.40
20977;DHT22;10647;51.016;3.720;2023-07-20T12:42:53;28.70;72.40
20977;DHT22;10647;51.016;3.720;2023-07-20T12:45:20;28.70;72.70
20977;DHT22;10647;51.016;3.720;2023-07-20T12:47:48;27.20;76.30
20977;DHT22;10647;51.016;3.720;2023-07-20T12:50:16;28.10;74.60
20977;DHT22;10647;51.016;3.720;2023-07-20T12:52:43;29.00;70.60
20977;DHT22;10647;51.016;3.720;2023-07-20T12:55:17;29.60;69.80
20977;DHT22;10647;51.016;3.720;2023-07-20T12:57:46;30.00;68.60
20977;DHT22;10647;51.016;3.720;2023-07-20T13:00:14;30.30;66.40
20977;DHT22;10647;51.016;3.720;2023-07-20T13:02:42;30.70;64.70
20977;DHT22;10647;51.016;3.720;2023-07-20T13:05:10;31.50;62.00
20977;DHT22;10647;51.016;3.720;2023-07-20T13:07:39;32.50;60.00
20977;DHT22;10647;51.016;3.720;2023-07-20T13:10:07;34.30;57.20
20977;DHT22;10647;51.016;3.720;2023-07-20T13:12:36;35.50;53.30
20977;DHT22;10647;51.016;3.720;2023-07-20T13:15:08;33.60;54.90
20977;DHT22;10647;51.016;3.720;2023-07-20T13:17:38;32.70;56.70
20977;DHT22;10647;51.016;3.720;2023-07-20T13:20:08;32.20;57.20
20977;DHT22;10647;51.016;3.720;2023-07-20T13:22:38;31.40;58.20
20977;DHT22;10647;51.016;3.720;2023-07-20T13:25:06;30.90;59.40
20977;DHT22;10647;51.016;3.720;2023-07-20T13:27:35;30.10;59.90
20977;DHT22;10647;51.016;3.720;2023-07-20T13:30:03;29.50;60.50
20977;DHT22;10647;51.016;3.720;2023-07-20T13:32:33;29.20;61.60
20977;DHT22;10647;51.016;3.720;2023-07-20T13:35:00;28.50;64.40
20977;DHT22;10647;51.016;3.720;2023-07-20T13:37:28;28.50;64.10
20977;DHT22;10647;51.016;3.720;2023-07-20T13:39:56;28.20;64.10
20977;DHT22;10647;51.016;3.720;2023-07-20T13:42:23;27.90;64.60
20977;DHT22;10647;51.016;3.720;2023-07-20T13:44:51;27.70;65.70
20977;DHT22;10647;51.016;3.720;2023-07-20T13:47:18;27.50;66.00
20977;DHT22;10647;51.016;3.720;2023-07-20T13:49:46;27.30;66.00
20977;DHT22;10647;51.016;3.720;2023-07-20T13:52:13;27.10;66.70
20977;DHT22;10647;51.016;3.720;2023-07-20T13:54:41;26.80;66.90
20977;DHT22;10647;51.016;3.720;2023-07-20T13:57:08;26.80;66.90
20977;DHT22;10647;51.016;3.720;2023-07-20T13:59:36;26.00;89.00
20977;DHT22;10647;51.016;3.720;2023-07-20T14:02:04;25.20;99.90
20977;DHT22;10647;51.016;3.720;2023-07-20T14:04:31;24.00;99.90
20977;DHT22;10647;51.016;3.720;2023-07-20T14:06:59;22.60;99.90
20977;DHT22;10647;51.016;3.720;2023-07-20T14:09:26;22.10;99.90
20977;DHT22;10647;51.016;3.720;2023-07-20T14:11:54;20.20;99.90
20977;DHT22;10647;51.016;3.720;2023-07-20T14:14:22;20.40;99.90
20977;DHT22;10647;51.016;3.720;2023-07-20T14:16:50;20.70;99.90
20977;DHT22;10647;51.016;3.720;2023-07-20T14:19:17;20.40;99.90
20977;DHT22;10647;51.016;3.720;2023-07-20T14:21:45;20.20;99.90
20977;DHT22;10647;51.016;3.720;2023-07-20T14:24:12;20.30;99.90
20977;DHT22;10647;51.016;3.720;2023-07-20T14:26:40;20.50;99.90
20977;DHT22;10647;51.016;3.720;2023-07-20T14:29:07;20.70;99.90
20977;DHT22;10647;51.016;3.720;2023-07-20T14:31:35;20.70;99.90
20977;DHT22;10647;51.016;3.720;2023-07-20T14:34:02;20.70;99.90
20977;DHT22;10647;51.016;3.720;2023-07-20T14:36:30;20.80;99.90
20977;DHT22;10647;51.016;3.720;2023-07-20T14:38:58;21.00;99.90
20977;DHT22;10647;51.016;3.720;2023-07-20T14:41:26;21.40;99.90
20977;DHT22;10647;51.016;3.720;2023-07-20T14:43:53;21.50;99.90
20977;DHT22;10647;51.016;3.720;2023-07-20T14:46:21;21.60;99.90
20977;DHT22;10647;51.016;3.720;2023-07-20T14:48:49;21.40;99.90
20977;DHT22;10647;51.016;3.720;2023-07-20T14:51:18;21.00;99.90
20977;DHT22;10647;51.016;3.720;2023-07-20T14:53:47;20.40;99.90
20977;DHT22;10647;51.016;3.720;2023-07-20T14:56:14;20.70;99.90
20977;DHT22;10647;51.016;3.720;2023-07-20T14:58:42;20.80;99.90
20977;DHT22;10647;51.016;3.720;2023-07-20T15:01:10;20.80;99.90
20977;DHT22;10647;51.016;3.720;2023-07-20T15:03:38;20.60;99.90
20977;DHT22;10647;51.016;3.720;2023-07-20T15:06:12;20.70;99.90
20977;DHT22;10647;51.016;3.720;2023-07-20T15:08:43;20.70;99.90
20977;DHT22;10647;51.016;3.720;2023-07-20T15:11:11;20.80;99.90
20977;DHT22;10647;51.016;3.720;2023-07-20T15:13:38;20.90;99.90
20977;DHT22;10647;51.016;3.720;2023-07-20T15:16:07;21.10;99.90
20977;DHT22;10647;51.016;3.720;2023-07-20T15:18:36;21.00;99.90
20977;DHT22;10647;51.016;3.720;2023-07-20T15:21:05;21.30;99.90
20977;DHT22;10647;51.016;3.720;2023-07-20T15:23:32;21.50;99.90
20977;DHT22;10647;51.016;3.720;2023-07-20T15:26:00;21.50;99.90
20977;DHT22;10647;51.016;3.720;2023-07-20T15:28:27;21.50;99.90
20977;DHT22;10647;51.016;3.720;2023-07-20T15:31:02;21.60;99.90
20977;DHT22;10647;51.016;3.720;2023-07-20T15:33:30;21.80;99.90
20977;DHT22;10647;51.016;3.720;2023-07-20T15:35:58;21.80;99.90
20977;DHT22;10647;51.016;3.720;2023-07-20T15:38:26;21.90;99.90
20977;DHT22;10647;51.016;3.720;2023-07-20T15:40:53;21.90;99.90
20977;DHT22;10647;51.016;3.720;2023-07-20T15:43:23;21.90;99.90
20977;DHT22;10647;51.016;3.720;2023-07-20T15:45:50;22.90;99.90
20977;DHT22;10647;51.016;3.720;2023-07-20T15:48:21;24.30;99.90
20977;DHT22;10647;51.016;3.720;2023-07-20T15:50:49;24.70;99.90